Time;durP1;ratioP1;P1;durP2;ratioP2;P2;SDS_P1;SDS_P2;PMS_P1;PMS_P2;Temp;Humidity;BMP_temperature;BMP_pressure;BME280_temperature;BME280_humidity;BME280_pressure;Samples;Min_cycle;Max_cycle;Signal;HPM_P1;HPM_P2
2022/06/16 00:00:07;;;;;;;3.60;0.90;;;;;;;14.68;57.84;100444.90;105811;1273;24240;-62
2022/06/16 00:02:59;;;;;;;4.20;0.90;;;;;;;14.61;58.17;100437.61;105596;1274;24303;-62
2022/06/16 00:05:34;;;;;;;3.50;0.80;;;;;;;14.56;58.31;100442.68;105972;1273;25398;-62
2022/06/16 00:08:08;;;;;;;4.10;0.80;;;;;;;14.50;58.25;100437.03;105711;1274;22549;-62
2022/06/16 00:11:16;;;;;;;4.20;1.00;;;;;;;14.46;58.23;100430.83;105661;1273;25277;-61
2022/06/16 00:13:34;;;;;;;6.20;0.90;;;;;;;14.42;58.59;100430.85;105786;1274;22531;-62
2022/06/16 00:16:08;;;;;;;7.30;1.10;;;;;;;14.38;58.68;100430.57;105703;1273;24233;-63
2022/06/16 00:18:40;;;;;;;8.00;1.70;;;;;;;14.33;58.86;100429.71;105726;1274;22572;-62
2022/06/16 00:21:12;;;;;;;5.90;1.20;;;;;;;14.26;58.86;100424.94;106224;1274;24752;-63
2022/06/16 00:23:45;;;;;;;4.00;1.00;;;;;;;14.24;59.05;100421.71;105686;1274;22553;-61
2022/06/16 00:26:19;;;;;;;6.80;1.10;;;;;;;14.21;59.05;100418.77;105881;1274;25312;-62
2022/06/16 00:28:51;;;;;;;5.20;1.20;;;;;;;14.14;59.49;100417.05;105974;1273;22726;-62
2022/06/16 00:31:24;;;;;;;8.10;1.10;;;;;;;14.05;59.61;100418.05;105900;1274;22591;-61
2022/06/16 00:33:55;;;;;;;5.10;0.90;;;;;;;13.97;59.82;100414.66;105869;1273;23262;-62
2022/06/16 00:36:30;;;;;;;4.10;1.00;;;;;;;13.92;59.94;100412.63;105791;1274;22543;-62
2022/06/16 00:39:04;;;;;;;5.50;1.30;;;;;;;13.87;60.07;100414.17;105535;1273;25346;-61
2022/06/16 00:41:35;;;;;;;9.10;1.00;;;;;;;13.82;60.06;100408.42;105518;1274;22534;-62
2022/06/16 00:44:17;;;;;;;5.40;1.10;;;;;;;13.76;60.21;100411.13;105946;1273;22576;-62
2022/06/16 00:46:49;;;;;;;6.40;1.00;;;;;;;13.67;60.39;100407.94;105696;1274;23610;-61
2022/06/16 00:49:20;;;;;;;6.30;1.20;;;;;;;13.59;60.63;100411.73;105597;1275;22534;-61
2022/06/16 00:51:56;;;;;;;5.20;1.20;;;;;;;13.52;60.99;100411.06;105493;1275;24398;-61
2022/06/16 00:54:32;;;;;;;6.20;1.10;;;;;;;13.45;60.93;100408.55;105674;1275;22553;-62
2022/06/16 00:57:08;;;;;;;8.70;1.10;;;;;;;13.41;61.10;100410.42;105625;1275;25523;-62
2022/06/16 00:59:40;;;;;;;9.60;1.60;;;;;;;13.35;61.21;100412.66;105772;1274;24271;-62
2022/06/16 01:02:12;;;;;;;9.50;2.00;;;;;;;13.27;61.45;100411.82;105612;1275;22638;-62
2022/06/16 01:04:53;;;;;;;9.50;1.70;;;;;;;13.22;61.38;100413.69;105950;1273;22563;-61
2022/06/16 01:07:29;;;;;;;9.00;1.70;;;;;;;13.17;61.66;100410.53;105597;1275;24242;-61
2022/06/16 01:10:01;;;;;;;8.20;1.60;;;;;;;13.14;61.85;100407.80;105668;1274;22560;-62
2022/06/16 01:15:52;;;;;;;12.60;2.50;;;;;;;13.08;62.09;100403.91;105443;1275;24403;-61
2022/06/16 01:18:33;;;;;;;9.60;2.00;;;;;;;13.04;62.29;100401.30;105646;1274;22565;-62
2022/06/16 01:21:12;;;;;;;7.30;1.50;;;;;;;12.98;62.68;100398.98;105565;1274;22544;-61
2022/06/16 01:24:10;;;;;;;9.20;2.10;;;;;;;12.93;62.50;100397.29;105611;1274;24347;-61
2022/06/16 01:27:16;;;;;;;5.60;1.40;;;;;;;12.89;62.75;100398.00;105595;1274;22572;-60
2022/06/16 01:29:56;;;;;;;6.80;1.50;;;;;;;12.84;62.89;100396.41;105678;1274;23163;-61
2022/06/16 01:32:40;;;;;;;8.60;1.40;;;;;;;12.81;62.84;100398.25;105615;1274;25363;-61
2022/06/16 01:35:31;;;;;;;7.20;1.30;;;;;;;12.76;63.03;100395.65;105620;1274;23281;-63
2022/06/16 01:38:10;;;;;;;15.50;1.50;;;;;;;12.73;63.17;100393.84;105515;1274;25257;-61
2022/06/16 01:40:48;;;;;;;8.00;1.30;;;;;;;12.70;63.30;100399.56;105660;1274;26493;-60
2022/06/16 01:43:26;;;;;;;8.90;1.30;;;;;;;12.68;63.39;100394.27;105614;1274;25292;-62
2022/06/16 01:46:05;;;;;;;6.90;1.40;;;;;;;12.64;63.50;100396.25;105537;1274;24288;-60
2022/06/16 01:48:40;;;;;;;6.60;1.40;;;;;;;12.60;63.63;100394.33;105716;1274;22564;-61
2022/06/16 01:51:17;;;;;;;8.20;1.20;;;;;;;12.57;63.76;100393.98;105517;1274;22740;-61
2022/06/16 01:53:52;;;;;;;10.40;1.50;;;;;;;12.55;63.82;100397.98;105589;1274;22537;-59
2022/06/16 01:56:29;;;;;;;8.60;1.90;;;;;;;12.52;64.11;100396.81;105549;1274;23212;-60
2022/06/16 01:59:03;;;;;;;7.30;1.70;;;;;;;12.47;64.34;100392.20;105622;1274;22654;-61
2022/06/16 02:01:42;;;;;;;9.50;3.20;;;;;;;12.43;64.40;100388.04;105803;1274;22568;-60
2022/06/16 02:04:20;;;;;;;8.70;2.10;;;;;;;12.40;64.50;100385.90;105475;1274;22554;-61
2022/06/16 02:06:54;;;;;;;12.70;3.00;;;;;;;12.37;64.66;100384.39;105716;1274;25265;-61
2022/06/16 02:09:29;;;;;;;10.50;2.60;;;;;;;12.36;64.69;100383.24;105462;1274;24326;-60
2022/06/16 02:12:05;;;;;;;12.80;2.70;;;;;;;12.34;64.99;100385.82;105717;1274;22703;-59
2022/06/16 02:14:41;;;;;;;10.10;2.40;;;;;;;12.32;64.99;100384.11;105699;1274;22531;-61
2022/06/16 02:17:14;;;;;;;9.00;2.30;;;;;;;12.30;65.10;100386.83;105705;1274;24262;-61
2022/06/16 02:19:45;;;;;;;16.40;2.60;;;;;;;12.28;65.28;100384.77;105608;1274;24263;-62
2022/06/16 02:22:17;;;;;;;12.30;2.20;;;;;;;12.24;65.61;100388.83;105606;1274;25337;-60
2022/06/16 02:24:48;;;;;;;9.40;2.30;;;;;;;12.20;65.79;100392.23;105547;1274;24296;-62
2022/06/16 02:27:21;;;;;;;10.50;1.80;;;;;;;12.17;65.72;100392.45;105555;1274;22543;-60
2022/06/16 02:29:53;;;;;;;8.90;1.70;;;;;;;12.16;65.96;100394.22;105639;1274;25745;-61
2022/06/16 02:32:40;;;;;;;9.10;2.30;;;;;;;12.13;66.07;100394.16;105588;1275;22609;-62
2022/06/16 02:35:24;;;;;;;7.60;1.90;;;;;;;12.13;66.17;100394.73;105547;1274;25303;-60
2022/06/16 02:38:08;;;;;;;7.50;1.80;;;;;;;12.12;66.42;100392.27;105446;1274;23188;-60
2022/06/16 02:40:56;;;;;;;9.70;2.10;;;;;;;12.12;66.58;100392.20;105669;1274;22541;-59
2022/06/16 02:43:58;;;;;;;7.00;2.00;;;;;;;12.11;66.74;100390.73;105563;1274;25197;-59
2022/06/16 02:46:39;;;;;;;9.50;1.70;;;;;;;12.11;66.69;100385.79;105323;1281;22565;-60
2022/06/16 02:49:19;;;;;;;8.60;2.20;;;;;;;12.12;67.07;100386.06;105206;1281;22551;-60
2022/06/16 02:52:08;;;;;;;9.90;2.10;;;;;;;12.12;67.02;100384.73;105265;1281;24455;-59
2022/06/16 02:54:47;;;;;;;9.60;1.80;;;;;;;12.13;67.37;100382.94;105294;1279;23348;-60
2022/06/16 02:57:24;;;;;;;9.60;2.10;;;;;;;12.14;67.52;100385.23;105345;1281;22536;-61
2022/06/16 03:00:00;;;;;;;8.60;1.90;;;;;;;12.15;67.56;100387.58;105087;1281;22570;-61
2022/06/16 03:02:36;;;;;;;7.00;1.70;;;;;;;12.14;67.74;100384.58;105520;1281;22595;-58
2022/06/16 03:05:10;;;;;;;8.70;2.40;;;;;;;12.12;67.89;100383.20;105402;1280;22588;-59
2022/06/16 03:07:42;;;;;;;8.90;2.30;;;;;;;12.12;67.92;100386.83;105414;1281;22540;-60
2022/06/16 03:10:50;;;;;;;7.80;1.90;;;;;;;12.13;67.79;100381.69;105356;1281;22548;-61
2022/06/16 03:13:10;;;;;;;10.80;2.20;;;;;;;12.14;68.19;100380.40;105129;1281;22566;-61
2022/06/16 03:15:42;;;;;;;9.90;2.30;;;;;;;12.15;68.33;100383.52;105243;1281;22582;-60
2022/06/16 03:18:13;;;;;;;11.70;2.30;;;;;;;12.13;68.41;100387.81;105421;1279;24677;-60
2022/06/16 03:20:45;;;;;;;10.80;2.30;;;;;;;12.13;68.48;100384.64;105345;1281;22558;-60
2022/06/16 03:23:17;;;;;;;10.80;2.00;;;;;;;12.15;68.57;100388.85;105455;1275;22542;-59
2022/06/16 03:25:49;;;;;;;10.20;2.00;;;;;;;12.16;68.76;100384.04;105646;1274;23190;-59
2022/06/16 03:28:21;;;;;;;15.40;2.50;;;;;;;12.18;68.95;100381.73;105543;1274;22615;-59
2022/06/16 03:30:53;;;;;;;11.40;2.10;;;;;;;12.19;69.15;100381.98;105521;1274;22576;-61
2022/06/16 03:33:25;;;;;;;8.20;2.30;;;;;;;12.22;69.19;100373.64;105767;1274;24399;-60
2022/06/16 03:35:59;;;;;;;11.30;2.30;;;;;;;12.26;69.58;100370.48;105644;1274;22594;-60
2022/06/16 03:38:35;;;;;;;12.70;3.10;;;;;;;12.29;69.83;100370.57;105757;1273;22549;-59
2022/06/16 03:41:07;;;;;;;11.30;2.50;;;;;;;12.33;69.52;100368.14;105683;1273;25333;-61
2022/06/16 03:43:39;;;;;;;12.00;2.10;;;;;;;12.40;70.09;100365.24;105787;1274;22546;-63
2022/06/16 03:46:12;;;;;;;9.90;2.50;;;;;;;12.47;69.81;100364.52;105571;1274;22543;-59
2022/06/16 03:48:46;;;;;;;9.80;2.80;;;;;;;12.54;69.99;100362.02;105670;1273;22550;-59
2022/06/16 03:51:19;;;;;;;8.70;2.40;;;;;;;12.62;69.93;100364.35;105613;1274;22558;-61
2022/06/16 03:53:51;;;;;;;10.60;3.00;;;;;;;12.70;69.97;100360.73;105700;1273;23125;-59
2022/06/16 03:56:23;;;;;;;12.70;3.00;;;;;;;12.79;70.43;100359.94;105682;1273;22553;-60
2022/06/16 03:58:56;;;;;;;10.90;2.70;;;;;;;12.88;70.68;100365.54;105797;1273;22548;-61
2022/06/16 04:01:28;;;;;;;10.80;2.50;;;;;;;12.96;70.16;100362.73;105510;1274;22546;-60
2022/06/16 04:04:03;;;;;;;15.90;3.20;;;;;;;13.06;70.74;100362.92;105790;1273;24830;-60
2022/06/16 04:06:37;;;;;;;12.00;3.00;;;;;;;13.14;70.76;100358.11;105613;1274;22580;-59
2022/06/16 04:09:09;;;;;;;16.40;3.60;;;;;;;13.20;70.89;100356.02;105733;1274;24430;-59
2022/06/16 04:11:41;;;;;;;16.20;3.90;;;;;;;13.26;70.50;100354.87;105599;1274;25257;-61
2022/06/16 04:14:15;;;;;;;10.50;2.70;;;;;;;13.34;70.59;100348.36;105598;1274;25211;-59
2022/06/16 04:16:49;;;;;;;11.80;2.70;;;;;;;13.42;71.13;100344.77;105606;1273;22618;-59
2022/06/16 04:19:23;;;;;;;12.00;3.00;;;;;;;13.51;71.08;100340.69;105607;1274;24441;-61
2022/06/16 04:21:55;;;;;;;12.50;3.80;;;;;;;13.58;71.51;100339.26;105640;1274;22722;-58
2022/06/16 04:24:26;;;;;;;15.50;3.80;;;;;;;13.68;71.51;100344.69;105628;1274;22607;-61
2022/06/16 04:26:58;;;;;;;13.80;3.90;;;;;;;13.78;71.43;100345.53;105790;1273;22555;-60
2022/06/16 04:29:30;;;;;;;16.40;3.90;;;;;;;13.90;71.33;100344.49;105798;1274;22563;-60
2022/06/16 04:32:02;;;;;;;13.60;3.60;;;;;;;14.00;71.32;100339.77;105872;1274;22571;-60
2022/06/16 04:34:33;;;;;;;13.00;4.00;;;;;;;14.12;71.22;100338.67;105744;1273;26457;-61
2022/06/16 04:37:05;;;;;;;16.30;4.00;;;;;;;14.24;71.30;100335.16;105509;1274;23372;-59
2022/06/16 04:39:37;;;;;;;14.70;4.60;;;;;;;14.35;71.17;100330.52;105671;1273;25472;-60
2022/06/16 04:42:09;;;;;;;12.10;3.80;;;;;;;14.47;71.12;100331.39;105567;1274;22537;-61
2022/06/16 04:44:41;;;;;;;14.40;3.80;;;;;;;14.60;71.37;100331.23;105708;1275;25443;-59
2022/06/16 04:47:13;;;;;;;21.20;4.80;;;;;;;14.72;70.82;100330.83;105797;1273;22557;-61
2022/06/16 04:49:48;;;;;;;17.00;5.00;;;;;;;14.85;71.03;100325.86;105704;1272;22531;-61
2022/06/16 04:52:20;;;;;;;17.30;4.00;;;;;;;14.99;70.79;100324.68;105558;1273;23337;-61
2022/06/16 04:54:53;;;;;;;19.10;3.40;;;;;;;15.12;70.90;100320.27;105537;1274;22546;-59
2022/06/16 04:57:25;;;;;;;14.80;4.00;;;;;;;15.27;70.60;100315.02;105607;1274;22554;-61
2022/06/16 04:59:56;;;;;;;14.90;4.40;;;;;;;15.42;70.44;100312.06;105615;1275;22535;-62
2022/06/16 05:02:28;;;;;;;14.70;4.10;;;;;;;15.55;70.15;100310.55;105968;1273;22559;-62
2022/06/16 05:05:00;;;;;;;15.10;4.30;;;;;;;15.68;70.08;100309.63;105648;1274;24483;-62
2022/06/16 05:07:32;;;;;;;14.30;3.40;;;;;;;15.81;69.95;100307.33;105565;1274;23088;-61
2022/06/16 05:10:04;;;;;;;15.20;3.50;;;;;;;15.94;69.65;100305.65;105788;1274;22672;-62
2022/06/16 05:12:36;;;;;;;12.10;3.80;;;;;;;16.07;69.68;100302.09;106102;1273;22607;-61
2022/06/16 05:15:09;;;;;;;13.10;3.80;;;;;;;16.21;69.52;100299.14;105659;1274;22750;-61
2022/06/16 05:17:40;;;;;;;13.30;3.50;;;;;;;16.36;69.30;100302.78;106032;1273;22653;-62
2022/06/16 05:20:13;;;;;;;12.30;2.90;;;;;;;16.50;69.11;100301.31;105727;1274;22590;-62
2022/06/16 05:22:45;;;;;;;10.90;3.10;;;;;;;16.63;69.19;100295.78;106024;1274;23715;-61
2022/06/16 05:25:17;;;;;;;15.70;3.70;;;;;;;16.78;68.99;100293.40;105811;1274;22901;-62
2022/06/16 05:27:49;;;;;;;18.80;3.30;;;;;;;16.90;68.77;100294.15;105940;1273;22590;-63
2022/06/16 05:30:21;;;;;;;12.70;3.70;;;;;;;17.00;68.53;100292.82;105806;1274;22719;-63
2022/06/16 05:32:54;;;;;;;11.60;3.10;;;;;;;17.10;68.34;100294.08;105886;1273;25934;-62
2022/06/16 05:35:26;;;;;;;10.60;2.20;;;;;;;17.20;68.30;100294.43;105780;1273;24272;-65
2022/06/16 05:37:58;;;;;;;9.10;2.70;;;;;;;17.29;68.00;100295.64;105919;1274;24170;-62
2022/06/16 05:40:30;;;;;;;11.60;2.30;;;;;;;17.40;67.78;100291.70;105688;1273;22536;-63
2022/06/16 05:43:02;;;;;;;11.90;3.30;;;;;;;17.53;67.67;100291.83;105830;1273;25333;-62
2022/06/16 05:45:35;;;;;;;13.20;3.20;;;;;;;17.65;67.45;100295.98;105622;1274;25722;-62
2022/06/16 05:48:07;;;;;;;10.80;2.60;;;;;;;17.80;67.48;100289.64;105775;1273;24312;-63
2022/06/16 05:50:39;;;;;;;18.80;3.10;;;;;;;17.96;67.24;100290.27;105730;1273;24280;-65
2022/06/16 05:53:11;;;;;;;14.00;3.50;;;;;;;18.09;66.77;100288.48;105622;1273;25340;-62
2022/06/16 05:55:45;;;;;;;15.70;2.20;;;;;;;18.21;66.46;100290.23;105622;1273;22535;-62
2022/06/16 05:58:17;;;;;;;10.50;2.40;;;;;;;18.29;66.03;100291.38;105664;1273;25574;-61
2022/06/16 06:00:48;;;;;;;12.00;2.20;;;;;;;18.38;66.00;100291.84;105731;1273;24260;-62
2022/06/16 06:03:22;;;;;;;14.30;3.10;;;;;;;18.48;65.72;100289.75;105790;1273;23767;-62
2022/06/16 06:05:54;;;;;;;16.00;3.00;;;;;;;18.58;65.65;100289.36;105821;1273;24804;-62
2022/06/16 06:17:02;;;;;;;13.30;2.00;;;;;;;19.06;64.69;100283.35;105644;1273;22537;-67
2022/06/16 06:19:34;;;;;;;11.60;2.10;;;;;;;19.19;64.58;100286.91;105837;1273;25228;-62
2022/06/16 06:22:10;;;;;;;9.10;1.80;;;;;;;19.34;64.33;100290.34;105691;1274;25563;-63
2022/06/16 06:24:46;;;;;;;9.60;2.50;;;;;;;19.50;64.13;100292.66;105517;1273;22568;-62
2022/06/16 06:27:20;;;;;;;9.40;1.90;;;;;;;19.66;64.04;100290.86;105539;1274;22704;-63
2022/06/16 06:29:52;;;;;;;11.60;2.00;;;;;;;19.84;63.85;100291.73;105553;1274;25330;-63
2022/06/16 06:32:26;;;;;;;8.20;1.60;;;;;;;20.00;63.48;100290.04;105707;1273;25528;-63
2022/06/16 06:34:58;;;;;;;11.30;1.70;;;;;;;20.15;63.05;100282.59;105940;1273;22618;-63
2022/06/16 06:37:30;;;;;;;10.90;1.90;;;;;;;20.32;62.94;100278.63;105805;1273;22543;-64
2022/06/16 06:40:02;;;;;;;10.10;1.60;;;;;;;20.49;62.89;100282.19;105802;1273;25337;-64
2022/06/16 06:42:34;;;;;;;9.30;1.80;;;;;;;20.67;62.28;100275.58;105799;1273;25452;-64
2022/06/16 06:45:07;;;;;;;8.50;1.60;;;;;;;20.85;62.08;100273.69;105699;1273;26092;-64
2022/06/16 06:47:39;;;;;;;7.90;1.50;;;;;;;21.02;61.57;100264.04;105567;1274;22560;-64
2022/06/16 06:50:19;;;;;;;7.20;1.40;;;;;;;21.15;61.25;100266.09;105563;1274;22801;-63
2022/06/16 06:52:51;;;;;;;5.50;1.30;;;;;;;21.27;60.54;100267.16;106186;1274;25434;-63
2022/06/16 06:55:24;;;;;;;7.90;1.50;;;;;;;21.37;60.29;100260.86;105557;1273;22554;-64
2022/06/16 06:57:56;;;;;;;10.40;1.90;;;;;;;21.54;60.11;100259.83;105561;1273;26082;-64
2022/06/16 07:00:32;;;;;;;7.90;1.70;;;;;;;21.70;59.62;100254.58;105305;1273;22622;-63
2022/06/16 07:03:04;;;;;;;6.10;1.50;;;;;;;21.89;59.22;100255.67;105707;1274;24236;-62
2022/06/16 07:05:36;;;;;;;6.40;1.30;;;;;;;22.03;58.62;100260.91;105568;1273;25266;-61
2022/06/16 07:08:10;;;;;;;5.80;1.20;;;;;;;22.08;58.15;100258.73;105698;1273;22530;-61
2022/06/16 07:10:43;;;;;;;6.30;1.40;;;;;;;22.12;57.88;100259.23;106394;1273;22827;-62
2022/06/16 07:13:14;;;;;;;6.80;1.30;;;;;;;22.14;57.68;100256.33;105578;1274;22563;-62
2022/06/16 07:15:47;;;;;;;6.50;1.50;;;;;;;22.19;57.63;100255.38;106096;1274;23210;-62
2022/06/16 07:18:20;;;;;;;6.40;1.30;;;;;;;22.25;57.38;100258.41;105740;1273;22573;-62
2022/06/16 07:20:52;;;;;;;7.10;1.20;;;;;;;22.32;57.26;100258.26;105664;1273;22866;-63
2022/06/16 07:23:24;;;;;;;5.90;1.30;;;;;;;22.43;57.23;100262.11;105983;1273;22644;-64
2022/06/16 07:25:57;;;;;;;5.00;1.10;;;;;;;22.59;57.02;100260.38;105635;1274;24438;-62
2022/06/16 07:28:29;;;;;;;5.70;1.30;;;;;;;22.73;56.36;100255.66;101231;1274;5681455;-62
2022/06/16 07:31:04;;;;;;;7.90;1.40;;;;;;;22.80;56.12;100255.73;105731;1273;22614;-63
2022/06/16 07:33:37;;;;;;;4.40;1.10;;;;;;;22.85;55.93;100259.55;105601;1273;22802;-62
2022/06/16 07:36:11;;;;;;;5.70;1.10;;;;;;;22.91;55.88;100259.41;105811;1273;22607;-62
2022/06/16 07:38:43;;;;;;;5.00;1.30;;;;;;;23.00;55.86;100261.15;105616;1274;22537;-63
2022/06/16 07:41:34;;;;;;;5.60;1.20;;;;;;;23.13;55.74;100261.98;105629;1273;22612;-63
2022/06/16 07:44:10;;;;;;;6.40;1.40;;;;;;;23.26;55.41;100259.73;105818;1273;24513;-62
2022/06/16 07:46:44;;;;;;;5.80;1.60;;;;;;;23.38;55.13;100258.64;105628;1273;25326;-62
2022/06/16 07:49:22;;;;;;;6.90;1.60;;;;;;;23.46;55.15;100255.79;105655;1274;23959;-63
2022/06/16 07:51:55;;;;;;;7.30;1.30;;;;;;;23.57;55.11;100259.39;105746;1273;22560;-62
2022/06/16 07:54:28;;;;;;;7.80;1.40;;;;;;;23.68;54.85;100257.57;105797;1273;24374;-62
2022/06/16 07:57:00;;;;;;;7.90;1.40;;;;;;;23.79;54.97;100258.98;105759;1273;22869;-63
2022/06/16 07:59:33;;;;;;;4.10;1.20;;;;;;;23.86;54.34;100258.71;105928;1273;25539;-62
2022/06/16 08:02:06;;;;;;;13.40;1.80;;;;;;;23.89;54.00;100253.65;105605;1274;22534;-62
2022/06/16 08:04:37;;;;;;;4.60;1.30;;;;;;;23.92;54.08;100248.89;105599;1273;22693;-63
2022/06/16 08:07:09;;;;;;;6.40;1.30;;;;;;;23.99;53.91;100242.53;105657;1274;22648;-62
2022/06/16 08:09:40;;;;;;;7.80;1.30;;;;;;;24.04;53.38;100241.00;105665;1273;22607;-62
2022/06/16 08:12:13;;;;;;;8.50;1.40;;;;;;;24.07;53.51;100238.14;105562;1273;22875;-63
2022/06/16 08:14:46;;;;;;;5.50;1.20;;;;;;;24.12;53.39;100238.73;105424;1274;25264;-63
2022/06/16 08:17:20;;;;;;;4.10;1.10;;;;;;;24.20;53.31;100240.29;106082;1273;25439;-63
2022/06/16 08:19:52;;;;;;;5.60;1.10;;;;;;;24.24;52.84;100241.78;106521;1273;25430;-62
2022/06/16 08:22:23;;;;;;;6.10;1.10;;;;;;;24.27;53.18;100239.20;105723;1273;24212;-62
2022/06/16 08:24:56;;;;;;;6.90;1.20;;;;;;;24.30;52.97;100242.39;105599;1273;25445;-63
2022/06/16 08:27:39;;;;;;;8.20;1.30;;;;;;;24.29;52.81;100241.86;105972;1273;24218;-63
2022/06/16 08:30:15;;;;;;;6.00;1.20;;;;;;;24.27;52.42;100238.69;105675;1273;23884;-64
2022/06/16 08:32:46;;;;;;;7.80;1.10;;;;;;;24.27;52.47;100239.67;105672;1273;22739;-65
2022/06/16 08:35:18;;;;;;;7.40;1.40;;;;;;;24.29;52.37;100243.91;105647;1274;24262;-64
2022/06/16 08:37:50;;;;;;;7.70;1.30;;;;;;;24.36;52.69;100244.27;105671;1274;25268;-63
2022/06/16 08:40:23;;;;;;;3.60;1.30;;;;;;;24.47;52.54;100244.83;105583;1273;26536;-64
2022/06/16 08:42:59;;;;;;;3.30;1.00;;;;;;;24.68;52.42;100242.82;106703;1274;22814;-64
2022/06/16 08:45:37;;;;;;;7.00;1.80;;;;;;;24.89;52.06;100243.20;106730;1273;25433;-64
2022/06/16 08:48:21;;;;;;;3.50;1.20;;;;;;;25.09;51.71;100245.21;105834;1273;25404;-63
2022/06/16 08:51:01;;;;;;;5.40;1.20;;;;;;;25.20;51.11;100252.79;105660;1274;22564;-68
2022/06/16 08:53:52;;;;;;;9.60;1.10;;;;;;;25.30;51.22;100252.39;105795;1273;22676;-64
2022/06/16 08:56:38;;;;;;;5.30;1.20;;;;;;;25.46;50.57;100254.20;105608;1274;22767;-64
2022/06/16 08:59:20;;;;;;;4.70;1.40;;;;;;;25.41;50.21;100249.93;105623;1273;22538;-64
2022/06/16 09:02:01;;;;;;;5.00;1.00;;;;;;;25.32;50.35;100250.99;105659;1274;22693;-63
2022/06/16 09:04:39;;;;;;;3.70;1.10;;;;;;;25.30;50.02;100256.46;105895;1273;24372;-63
2022/06/16 09:07:22;;;;;;;6.00;1.10;;;;;;;25.25;49.64;100258.98;105750;1273;25317;-64
2022/06/16 09:10:17;;;;;;;5.50;1.40;;;;;;;25.20;49.79;100251.23;105641;1273;22534;-63
2022/06/16 09:13:19;;;;;;;4.80;1.00;;;;;;;25.24;49.66;100249.03;107019;1273;25360;-64
2022/06/16 09:16:01;;;;;;;8.90;1.00;;;;;;;25.31;49.36;100244.88;105738;1273;22548;-64
2022/06/16 09:19:03;;;;;;;7.00;1.20;;;;;;;25.39;49.54;100247.45;105704;1273;22571;-63
2022/06/16 09:21:44;;;;;;;6.90;1.10;;;;;;;25.54;49.16;100247.20;105732;1274;22569;-64
2022/06/16 09:24:41;;;;;;;4.50;1.20;;;;;;;25.62;48.77;100250.34;105652;1273;22839;-64
2022/06/16 09:27:19;;;;;;;7.50;1.40;;;;;;;25.60;48.72;100249.94;105672;1273;23201;-64
2022/06/16 09:29:54;;;;;;;4.50;1.10;;;;;;;25.60;48.34;100251.02;105785;1274;25503;-64
2022/06/16 09:32:34;;;;;;;6.00;1.50;;;;;;;25.62;48.10;100250.20;105776;1273;23834;-64
2022/06/16 09:35:12;;;;;;;7.90;1.10;;;;;;;25.65;47.67;100252.91;105837;1274;24300;-64
2022/06/16 09:37:49;;;;;;;4.40;1.10;;;;;;;25.61;47.11;100250.16;105741;1273;24242;-64
2022/06/16 09:40:27;;;;;;;6.70;1.10;;;;;;;25.57;47.13;100252.25;105930;1273;24235;-63
2022/06/16 09:43:06;;;;;;;6.30;1.30;;;;;;;25.55;47.23;100250.86;105803;1273;26585;-63
2022/06/16 09:45:43;;;;;;;4.30;1.00;;;;;;;25.58;47.41;100251.86;105659;1273;22552;-64
2022/06/16 09:48:19;;;;;;;4.20;0.80;;;;;;;25.61;47.03;100253.17;105793;1273;22652;-64
2022/06/16 09:50:55;;;;;;;6.10;1.20;;;;;;;25.67;46.82;100251.02;105825;1273;26524;-64
2022/06/16 09:53:35;;;;;;;3.60;1.10;;;;;;;25.73;46.53;100248.27;105811;1273;22482;-65
2022/06/16 09:56:11;;;;;;;4.60;1.10;;;;;;;25.76;46.34;100243.13;105729;1273;24280;-63
2022/06/16 09:58:48;;;;;;;4.80;1.20;;;;;;;25.86;46.25;100241.79;105898;1273;24312;-64
2022/06/16 10:01:24;;;;;;;7.10;1.30;;;;;;;25.97;46.47;100235.46;105885;1273;22552;-64
2022/06/16 10:04:01;;;;;;;4.50;1.00;;;;;;;26.12;46.22;100237.89;105705;1273;25252;-65
2022/06/16 10:06:39;;;;;;;3.80;0.90;;;;;;;26.23;45.38;100237.40;105713;1273;22535;-64
2022/06/16 10:09:20;;;;;;;7.20;1.10;;;;;;;26.27;45.22;100237.58;105846;1273;22724;-63
2022/06/16 10:12:00;;;;;;;7.30;1.20;;;;;;;26.29;44.82;100236.63;105714;1273;23979;-64
2022/06/16 10:14:40;;;;;;;2.80;0.80;;;;;;;26.26;44.76;100232.77;105875;1274;24476;-65
2022/06/16 10:17:15;;;;;;;3.40;1.10;;;;;;;26.24;44.48;100231.77;105685;1273;22554;-65
2022/06/16 10:19:48;;;;;;;6.20;1.10;;;;;;;26.21;44.43;100232.95;105813;1273;25526;-64
2022/06/16 10:22:22;;;;;;;4.10;0.90;;;;;;;26.25;44.78;100236.60;105629;1273;22616;-64
2022/06/16 10:24:59;;;;;;;3.60;1.00;;;;;;;26.35;44.40;100237.02;105588;1275;25331;-65
2022/06/16 10:27:36;;;;;;;4.50;1.00;;;;;;;26.45;44.28;100233.20;105774;1273;23976;-64
2022/06/16 10:30:18;;;;;;;5.90;1.10;;;;;;;26.56;44.31;100234.98;105827;1273;22563;-65
2022/06/16 10:33:01;;;;;;;5.30;1.10;;;;;;;26.78;44.27;100235.21;105669;1273;24218;-64
2022/06/16 10:35:34;;;;;;;4.60;0.90;;;;;;;26.98;44.05;100234.45;106496;1273;24289;-64
2022/06/16 10:38:11;;;;;;;10.90;1.20;;;;;;;27.10;43.59;100233.21;105696;1274;22576;-65
2022/06/16 10:40:44;;;;;;;5.50;1.00;;;;;;;27.14;43.30;100235.02;105589;1273;23120;-64
2022/06/16 10:43:19;;;;;;;7.20;1.10;;;;;;;27.10;42.98;100232.14;105622;1273;24752;-64
2022/06/16 10:46:04;;;;;;;8.30;1.50;;;;;;;27.08;42.82;100230.95;105784;1273;25438;-65
2022/06/16 10:48:38;;;;;;;3.00;0.90;;;;;;;27.11;42.94;100228.48;105742;1273;25334;-65
2022/06/16 10:51:16;;;;;;;3.40;1.00;;;;;;;27.23;42.99;100230.56;105740;1273;25459;-64
2022/06/16 10:54:01;;;;;;;4.70;1.10;;;;;;;27.30;42.42;100231.14;105820;1273;22554;-65
2022/06/16 10:56:33;;;;;;;5.00;1.10;;;;;;;27.32;41.86;100231.58;105654;1273;25360;-64
2022/06/16 10:59:08;;;;;;;5.20;1.00;;;;;;;27.26;41.37;100232.10;105642;1270;24336;-65
2022/06/16 11:01:47;;;;;;;6.30;0.80;;;;;;;27.19;40.96;100238.84;105555;1273;22571;-65
2022/06/16 11:04:25;;;;;;;2.90;0.80;;;;;;;27.11;40.58;100239.67;105670;1273;24276;-65
2022/06/16 11:06:59;;;;;;;6.60;0.90;;;;;;;27.09;40.36;100238.03;105728;1273;25328;-65
2022/06/16 11:09:34;;;;;;;4.70;1.00;;;;;;;27.16;40.03;100240.45;105770;1273;23509;-64
2022/06/16 11:12:14;;;;;;;6.40;1.80;;;;;;;27.24;39.37;100238.81;105624;1274;25337;-65
2022/06/16 11:14:53;;;;;;;5.00;0.90;;;;;;;27.21;38.26;100240.46;105648;1274;22560;-65
2022/06/16 11:17:28;;;;;;;6.30;0.90;;;;;;;27.20;38.58;100242.46;105531;1273;22538;-65
2022/06/16 11:20:07;;;;;;;2.90;0.80;;;;;;;27.25;38.02;100236.48;105623;1274;22731;-65
2022/06/16 11:22:41;;;;;;;2.40;0.70;;;;;;;27.25;38.02;100235.89;105690;1273;22563;-66
2022/06/16 11:25:30;;;;;;;4.70;1.20;;;;;;;27.20;37.78;100234.08;105676;1273;22557;-65
2022/06/16 11:28:20;;;;;;;3.80;0.80;;;;;;;27.13;37.20;100233.65;105608;1273;22549;-64
2022/06/16 11:31:00;;;;;;;3.80;0.80;;;;;;;27.09;37.60;100229.45;105568;1273;24326;-66
2022/06/16 11:36:42;;;;;;;4.30;0.80;;;;;;;26.96;36.95;100228.55;106067;1264;22700;-54
2022/06/16 11:39:23;;;;;;;4.30;1.00;;;;;;;26.93;36.79;100231.89;105755;1270;24913;-52
2022/06/16 11:41:56;;;;;;;2.50;0.70;;;;;;;26.91;36.91;100237.76;105877;1271;22739;-57
2022/06/16 11:44:51;;;;;;;5.10;0.70;;;;;;;26.90;37.10;100242.27;105949;1270;22690;-55
2022/06/16 11:47:38;;;;;;;5.50;0.80;;;;;;;26.85;36.50;100243.23;105703;1270;22521;-54
2022/06/16 11:50:18;;;;;;;3.00;0.80;;;;;;;26.75;36.29;100234.69;105773;1270;22616;-51
2022/06/16 11:53:04;;;;;;;2.90;0.80;;;;;;;26.67;36.42;100230.86;105815;1270;25238;-54
2022/06/16 11:55:41;;;;;;;3.20;0.90;;;;;;;26.59;36.48;100220.20;105783;1270;22551;-50
2022/06/16 11:58:39;;;;;;;3.60;0.90;;;;;;;26.50;36.75;100215.73;105655;1270;25303;-50
2022/06/16 12:01:16;;;;;;;5.20;1.00;;;;;;;26.42;37.03;100225.71;105727;1270;22649;-53
2022/06/16 12:04:32;;;;;;;4.00;0.70;;;;;;;26.32;36.65;100231.60;105789;1271;22539;-56
2022/06/16 12:07:22;;;;;;;9.00;0.90;;;;;;;26.17;37.70;100241.16;105470;1277;22550;-51
2022/06/16 12:10:07;;;;;;;10.50;1.30;;;;;;;25.93;40.26;100247.09;105451;1276;22659;-60